Time;durP1;ratioP1;P1;durP2;ratioP2;P2;SDS_P1;SDS_P2;PMS_P1;PMS_P2;Temp;Humidity;BMP_temperature;BMP_pressure;BME280_temperature;BME280_humidity;BME280_pressure;Samples;Min_cycle;Max_cycle;Signal;HPM_P1;HPM_P2
2021/04/25 00:02:03;;;;;;;1.20;1.20;;;8.80;90.30;;;;;;5030086;28;20452;-68
2021/04/25 00:04:30;;;;;;;1.60;1.30;;;8.70;90.60;;;;;;5032489;28;20535;-68
2021/04/25 00:06:56;;;;;;;1.20;1.00;;;8.70;90.60;;;;;;5028813;28;20458;-69
2021/04/25 00:09:23;;;;;;;1.30;1.10;;;8.70;91.30;;;;;;5032435;28;20455;-68
2021/04/25 00:11:50;;;;;;;2.07;1.47;;;8.80;90.80;;;;;;5030786;28;20820;-69
2021/04/25 00:14:17;;;;;;;1.20;1.03;;;8.90;91.00;;;;;;5032282;28;20491;-68
2021/04/25 00:16:44;;;;;;;1.90;1.43;;;8.70;91.50;;;;;;5031639;28;20455;-69
2021/04/25 00:19:10;;;;;;;1.20;1.00;;;8.80;91.80;;;;;;5029506;28;20957;-68
2021/04/25 00:21:37;;;;;;;1.70;1.27;;;8.70;92.00;;;;;;5032176;28;20829;-68
2021/04/25 00:24:05;;;;;;;1.73;1.10;;;8.80;91.30;;;;;;5029331;28;20462;-70
2021/04/25 00:26:32;;;;;;;1.20;1.00;;;8.60;92.30;;;;;;5032118;28;20542;-69
2021/04/25 00:29:00;;;;;;;2.70;1.50;;;8.70;92.00;;;;;;5029282;28;20490;-68
2021/04/25 00:31:27;;;;;;;1.30;1.30;;;8.50;92.50;;;;;;5032059;28;20945;-68
2021/04/25 00:33:53;;;;;;;2.43;1.47;;;8.30;93.80;;;;;;5029060;28;20490;-68
2021/04/25 00:36:19;;;;;;;1.60;1.30;;;8.40;93.50;;;;;;5031738;28;20455;-69
2021/04/25 00:38:46;;;;;;;1.50;1.20;;;8.50;93.40;;;;;;5029091;28;20521;-68
2021/04/25 00:41:12;;;;;;;2.20;2.00;;;8.60;92.80;;;;;;5031791;28;20534;-68
2021/04/25 00:43:39;;;;;;;2.90;1.60;;;8.70;92.10;;;;;;5028876;28;20953;-68
2021/04/25 00:46:06;;;;;;;2.57;1.53;;;8.60;92.70;;;;;;5031494;28;20459;-69
2021/04/25 00:48:33;;;;;;;1.50;1.20;;;8.40;93.20;;;;;;5029052;28;20541;-68
2021/04/25 00:50:59;;;;;;;1.20;1.10;;;8.30;94.00;;;;;;5031527;28;20497;-68
2021/04/25 00:53:26;;;;;;;1.20;1.20;;;8.20;94.40;;;;;;5028826;28;20833;-68
2021/04/25 00:55:54;;;;;;;1.20;1.00;;;8.30;93.90;;;;;;5031483;28;20460;-68
2021/04/25 00:58:22;;;;;;;3.23;1.30;;;8.10;94.60;;;;;;5028696;28;20835;-68
2021/04/25 01:00:48;;;;;;;1.20;1.20;;;7.90;95.50;;;;;;5031313;28;20462;-68
2021/04/25 01:03:18;;;;;;;1.20;1.00;;;7.90;96.00;;;;;;5028890;28;20511;-68
2021/04/25 01:05:45;;;;;;;1.30;1.20;;;7.80;95.70;;;;;;5031127;28;20546;-68
2021/04/25 01:08:11;;;;;;;2.17;1.77;;;7.90;95.30;;;;;;5028601;28;20569;-69
2021/04/25 01:10:38;;;;;;;1.73;1.33;;;8.00;95.20;;;;;;5031065;28;20984;-68
2021/04/25 01:13:05;;;;;;;1.20;1.10;;;7.80;96.30;;;;;;5028782;28;20485;-69
2021/04/25 01:15:32;;;;;;;2.80;1.77;;;7.80;96.40;;;;;;5031014;28;20997;-68
2021/04/25 01:17:58;;;;;;;1.20;1.00;;;7.80;96.20;;;;;;5028486;28;20466;-68
2021/04/25 01:20:26;;;;;;;1.20;1.00;;;7.70;96.70;;;;;;5030945;28;20468;-69
2021/04/25 01:22:53;;;;;;;1.30;1.10;;;7.80;96.50;;;;;;5028525;28;20466;-68
2021/04/25 01:25:23;;;;;;;1.27;1.10;;;7.90;95.60;;;;;;5030855;28;20465;-68
2021/04/25 01:27:50;;;;;;;1.40;1.30;;;8.10;95.40;;;;;;5028204;28;20577;-68
2021/04/25 01:30:21;;;;;;;1.40;1.20;;;8.00;95.30;;;;;;5030872;28;20474;-69
2021/04/25 01:32:47;;;;;;;9.60;1.17;;;7.90;95.60;;;;;;5028128;28;20486;-68
2021/04/25 01:35:21;;;;;;;1.30;1.20;;;7.90;95.50;;;;;;5030857;28;20459;-68
2021/04/25 01:37:50;;;;;;;1.20;1.10;;;7.70;96.20;;;;;;5028473;28;20459;-67
2021/04/25 01:40:19;;;;;;;1.30;1.20;;;7.80;95.50;;;;;;5030988;28;20459;-68
2021/04/25 01:42:46;;;;;;;1.40;1.20;;;7.60;96.70;;;;;;5028450;28;20523;-68
2021/04/25 01:45:16;;;;;;;1.20;1.10;;;7.70;96.50;;;;;;5031026;28;20936;-68
2021/04/25 01:47:44;;;;;;;1.63;1.20;;;7.60;96.60;;;;;;5028028;28;20462;-68
2021/04/25 01:50:11;;;;;;;1.40;1.20;;;7.60;96.60;;;;;;5030390;28;20467;-68
2021/04/25 01:52:38;;;;;;;1.90;1.50;;;7.60;96.90;;;;;;5028410;28;20493;-68
2021/04/25 01:55:05;;;;;;;4.30;2.37;;;7.50;96.70;;;;;;5030930;28;20454;-68
2021/04/25 01:57:32;;;;;;;1.70;1.40;;;7.30;97.30;;;;;;5028486;28;20461;-68
2021/04/25 02:00:01;;;;;;;1.73;1.37;;;7.10;98.00;;;;;;5030708;28;20596;-68
2021/04/25 02:02:27;;;;;;;1.20;1.00;;;7.00;98.00;;;;;;5028272;28;20963;-68
2021/04/25 02:04:54;;;;;;;2.40;1.73;;;6.90;98.00;;;;;;5030674;28;20457;-69
2021/04/25 02:07:21;;;;;;;2.13;1.77;;;6.90;98.00;;;;;;5028208;28;20454;-68
2021/04/25 02:09:48;;;;;;;2.07;1.37;;;7.00;98.00;;;;;;5030636;28;20466;-68
2021/04/25 02:12:15;;;;;;;1.50;1.20;;;6.90;98.00;;;;;;5027853;28;20484;-68
2021/04/25 02:14:43;;;;;;;1.20;1.00;;;7.10;98.00;;;;;;5030581;28;20465;-68
2021/04/25 02:17:10;;;;;;;1.20;1.00;;;6.90;98.00;;;;;;5043071;28;20475;-68
2021/04/25 02:19:36;;;;;;;1.50;1.20;;;7.00;98.00;;;;;;5030485;28;20461;-69
2021/04/25 02:22:04;;;;;;;2.43;1.60;;;6.90;98.00;;;;;;5027805;28;20515;-68
2021/04/25 02:24:31;;;;;;;1.20;1.13;;;6.60;98.00;;;;;;5030246;28;20459;-68
2021/04/25 02:26:58;;;;;;;1.20;1.00;;;6.40;98.00;;;;;;5030217;28;20485;-68
2021/04/25 02:29:24;;;;;;;1.40;1.23;;;6.50;98.00;;;;;;5028231;28;20506;-70
2021/04/25 02:31:52;;;;;;;1.30;1.03;;;6.60;98.00;;;;;;5028998;28;20473;-68
2021/04/25 02:34:19;;;;;;;1.67;1.20;;;6.70;98.00;;;;;;5027683;28;20460;-68
2021/04/25 02:36:47;;;;;;;1.40;1.10;;;6.70;98.00;;;;;;5030326;28;20467;-68
2021/04/25 02:39:14;;;;;;;1.20;1.00;;;6.90;98.00;;;;;;5029899;28;20890;-68
2021/04/25 02:41:41;;;;;;;4.37;2.00;;;6.70;98.00;;;;;;5033762;28;20540;-69
2021/04/25 02:44:08;;;;;;;1.40;1.30;;;6.70;98.00;;;;;;5031663;28;20458;-68
2021/04/25 02:46:34;;;;;;;1.30;1.10;;;6.60;98.00;;;;;;5033998;28;20497;-68
2021/04/25 02:49:03;;;;;;;1.60;1.20;;;6.70;98.00;;;;;;5031273;28;20583;-68
2021/04/25 02:51:30;;;;;;;1.53;1.23;;;6.60;98.00;;;;;;5032588;28;20483;-68
2021/04/25 02:53:59;;;;;;;1.20;1.00;;;6.60;98.00;;;;;;5031025;28;21008;-68
2021/04/25 02:56:26;;;;;;;1.30;1.20;;;6.60;98.00;;;;;;5033749;28;20592;-68
2021/04/25 02:59:00;;;;;;;1.20;1.20;;;6.60;98.00;;;;;;5031253;28;20491;-68
2021/04/25 03:01:26;;;;;;;1.30;1.20;;;6.40;98.00;;;;;;5033761;28;20517;-68
2021/04/25 03:03:54;;;;;;;1.20;1.00;;;6.50;98.00;;;;;;5031138;28;20957;-68
2021/04/25 03:06:21;;;;;;;1.53;1.30;;;6.50;98.00;;;;;;5032245;28;20499;-68
2021/04/25 03:08:48;;;;;;;1.20;1.00;;;6.40;98.00;;;;;;5031251;28;20495;-68
2021/04/25 03:11:16;;;;;;;1.60;1.57;;;6.40;98.00;;;;;;5033706;28;20510;-68
2021/04/25 03:13:45;;;;;;;3.13;2.13;;;6.30;98.00;;;;;;5032088;28;20485;-67
2021/04/25 03:16:11;;;;;;;1.23;1.13;;;6.20;98.00;;;;;;5034168;28;20518;-69
2021/04/25 03:18:38;;;;;;;1.20;1.00;;;6.40;98.00;;;;;;5032444;28;20463;-68
2021/04/25 03:21:05;;;;;;;2.53;1.73;;;6.60;98.00;;;;;;5033859;28;20465;-68
2021/04/25 03:23:32;;;;;;;1.40;1.30;;;6.50;98.00;;;;;;5031077;28;20460;-68
2021/04/25 03:25:58;;;;;;;1.30;1.10;;;6.40;98.00;;;;;;5033283;28;20467;-68
2021/04/25 03:28:25;;;;;;;1.20;1.00;;;6.50;98.00;;;;;;5030629;28;20914;-67
2021/04/25 03:30:51;;;;;;;1.30;1.17;;;6.80;98.00;;;;;;5033133;28;20822;-68
2021/04/25 03:33:18;;;;;;;1.20;1.00;;;6.80;98.00;;;;;;5030498;28;20488;-67
2021/04/25 03:35:45;;;;;;;1.30;1.30;;;6.90;98.00;;;;;;5033122;28;20459;-67
2021/04/25 03:38:11;;;;;;;1.20;1.00;;;6.80;98.00;;;;;;5029194;28;20464;-68
2021/04/25 03:40:39;;;;;;;1.97;1.30;;;6.80;98.00;;;;;;5032948;28;20459;-68
2021/04/25 03:43:06;;;;;;;1.30;1.10;;;6.60;98.00;;;;;;5030320;28;20455;-68
2021/04/25 03:45:33;;;;;;;1.30;1.20;;;6.20;98.00;;;;;;5032963;28;20462;-68
2021/04/25 03:48:04;;;;;;;1.20;0.90;;;5.80;98.00;;;;;;5030397;28;20469;-68
2021/04/25 03:50:32;;;;;;;1.30;1.20;;;5.60;98.00;;;;;;5032847;28;20485;-68
2021/04/25 03:52:58;;;;;;;2.50;1.90;;;5.60;98.00;;;;;;5030233;28;20490;-67
2021/04/25 03:55:26;;;;;;;1.30;1.10;;;5.50;98.00;;;;;;5032785;28;20575;-69
2021/04/25 03:57:53;;;;;;;1.20;1.10;;;5.50;98.00;;;;;;5029980;28;20949;-68
2021/04/25 04:00:21;;;;;;;1.20;1.00;;;5.40;98.00;;;;;;5032408;28;20511;-68
2021/04/25 04:02:52;;;;;;;1.20;1.20;;;5.30;98.00;;;;;;5029994;28;20492;-68
2021/04/25 04:05:18;;;;;;;1.20;1.10;;;5.30;98.00;;;;;;5032388;28;20493;-68
2021/04/25 04:07:51;;;;;;;1.20;1.20;;;5.40;98.00;;;;;;5029815;28;20457;-68
2021/04/25 04:10:17;;;;;;;1.60;1.30;;;5.30;98.00;;;;;;5032169;28;20463;-68
2021/04/25 04:12:44;;;;;;;1.30;1.10;;;5.30;98.00;;;;;;5029659;28;20529;-67
2021/04/25 04:15:12;;;;;;;2.03;1.60;;;5.20;98.00;;;;;;5031162;28;20447;-68
2021/04/25 04:17:39;;;;;;;1.20;1.10;;;5.20;98.00;;;;;;5029396;28;20964;-68
2021/04/25 04:20:07;;;;;;;1.73;1.30;;;5.30;98.00;;;;;;5032187;28;20458;-68
2021/04/25 04:22:35;;;;;;;1.40;1.17;;;5.30;98.00;;;;;;5029531;28;20462;-67
2021/04/25 04:25:01;;;;;;;1.20;0.90;;;5.30;98.00;;;;;;5032195;28;21148;-67
2021/04/25 04:27:29;;;;;;;1.20;1.00;;;5.50;98.00;;;;;;5029271;28;20472;-68
2021/04/25 04:29:55;;;;;;;1.53;1.47;;;5.50;98.00;;;;;;5032134;28;20512;-68
2021/04/25 04:32:23;;;;;;;1.20;1.00;;;5.50;98.00;;;;;;5028984;28;20823;-68
2021/04/25 04:34:50;;;;;;;1.20;1.10;;;5.60;98.00;;;;;;5031949;28;20539;-67
2021/04/25 04:37:16;;;;;;;1.50;1.20;;;5.50;98.00;;;;;;5029254;28;20486;-68
2021/04/25 04:39:45;;;;;;;1.40;1.17;;;5.30;98.00;;;;;;5031816;28;20493;-67
2021/04/25 04:42:11;;;;;;;1.20;1.00;;;5.40;98.00;;;;;;5031948;28;20805;-68
2021/04/25 04:44:38;;;;;;;2.53;1.77;;;5.70;98.00;;;;;;5028703;28;20458;-68
2021/04/25 04:47:04;;;;;;;1.30;1.10;;;5.80;98.00;;;;;;5031788;28;20917;-67
2021/04/25 04:49:32;;;;;;;1.30;1.20;;;6.00;98.00;;;;;;5028162;28;20809;-67
2021/04/25 04:51:58;;;;;;;1.20;1.00;;;5.90;98.00;;;;;;5031726;28;20523;-67
2021/04/25 04:54:25;;;;;;;1.20;1.10;;;5.70;98.00;;;;;;5028881;28;20488;-68
2021/04/25 04:56:52;;;;;;;1.90;1.70;;;5.50;98.00;;;;;;5030556;28;20492;-67
2021/04/25 04:59:18;;;;;;;1.40;1.40;;;5.40;98.00;;;;;;5029121;28;20653;-68
2021/04/25 05:01:45;;;;;;;1.33;1.30;;;5.30;98.00;;;;;;5030978;28;20503;-67
2021/04/25 05:04:12;;;;;;;1.87;1.33;;;5.30;98.00;;;;;;5027651;28;20458;-68
2021/04/25 05:06:39;;;;;;;4.07;1.50;;;5.30;98.00;;;;;;5031412;28;20831;-68
2021/04/25 05:09:06;;;;;;;2.03;1.23;;;5.30;98.00;;;;;;5028883;28;20460;-70
2021/04/25 05:11:32;;;;;;;1.20;1.00;;;5.40;98.00;;;;;;5031480;28;20504;-68
2021/04/25 05:13:59;;;;;;;1.33;1.10;;;5.60;98.00;;;;;;5027518;28;20540;-67
2021/04/25 05:16:26;;;;;;;2.80;1.50;;;5.70;98.00;;;;;;5031236;28;20461;-67
2021/04/25 05:18:53;;;;;;;1.40;1.23;;;5.70;98.00;;;;;;5028438;28;20462;-67
2021/04/25 05:21:29;;;;;;;1.93;1.53;;;5.80;98.00;;;;;;5031044;28;20460;-67
2021/04/25 05:23:56;;;;;;;1.20;1.00;;;5.90;98.00;;;;;;5028403;28;20458;-67
2021/04/25 05:26:25;;;;;;;1.70;1.13;;;5.90;98.00;;;;;;5031212;28;21006;-67
2021/04/25 05:28:52;;;;;;;1.50;1.33;;;5.90;98.00;;;;;;5028288;28;20890;-67
2021/04/25 05:31:18;;;;;;;1.20;1.00;;;6.20;98.00;;;;;;5031093;28;20527;-68
2021/04/25 05:33:46;;;;;;;2.13;1.50;;;6.30;98.00;;;;;;5028523;28;20483;-68
2021/04/25 05:36:14;;;;;;;2.07;1.40;;;6.40;98.00;;;;;;5031349;28;20470;-67
2021/04/25 05:38:40;;;;;;;1.30;1.10;;;6.20;98.00;;;;;;5029005;28;20467;-67
2021/04/25 05:41:07;;;;;;;1.20;1.00;;;6.00;98.00;;;;;;5031039;28;20471;-68
2021/04/25 05:43:34;;;;;;;1.30;1.30;;;5.90;98.00;;;;;;5028989;28;20542;-67
2021/04/25 05:46:02;;;;;;;1.80;1.70;;;5.90;98.00;;;;;;5031134;28;20462;-67
2021/04/25 05:48:28;;;;;;;1.20;0.90;;;6.00;98.00;;;;;;5028275;28;20518;-67
2021/04/25 05:50:55;;;;;;;1.47;1.40;;;6.20;98.00;;;;;;5030832;28;20509;-67
2021/04/25 05:53:21;;;;;;;3.60;1.60;;;6.40;98.00;;;;;;5028843;28;20829;-67
2021/04/25 05:55:48;;;;;;;1.30;1.10;;;6.60;98.00;;;;;;5030933;28;20466;-67
2021/04/25 05:58:15;;;;;;;1.40;1.20;;;6.70;98.00;;;;;;5028165;28;20528;-67
2021/04/25 06:00:42;;;;;;;1.20;1.00;;;6.70;98.00;;;;;;5031214;28;20445;-68
2021/04/25 06:03:09;;;;;;;1.20;1.10;;;6.60;98.00;;;;;;5028880;28;20459;-67
2021/04/25 06:05:36;;;;;;;1.40;1.30;;;6.80;98.00;;;;;;5031039;28;20512;-67
2021/04/25 06:08:03;;;;;;;1.20;1.00;;;6.80;98.00;;;;;;5028143;28;20448;-67
2021/04/25 06:10:30;;;;;;;3.60;2.40;;;7.00;98.00;;;;;;5030992;28;21065;-67
2021/04/25 06:12:56;;;;;;;1.30;1.20;;;7.20;98.00;;;;;;5028422;28;20764;-67
2021/04/25 06:15:24;;;;;;;1.53;1.43;;;7.50;98.00;;;;;;5034632;28;20473;-67
2021/04/25 06:17:51;;;;;;;1.30;1.10;;;7.60;98.00;;;;;;5032759;28;20989;-67
2021/04/25 06:20:27;;;;;;;1.60;1.20;;;7.80;98.00;;;;;;5034818;28;20808;-69
2021/04/25 06:22:53;;;;;;;1.63;1.50;;;7.90;98.00;;;;;;5032107;28;20463;-68
2021/04/25 06:25:20;;;;;;;2.30;1.30;;;8.10;98.00;;;;;;5034678;28;20460;-68
2021/04/25 06:27:47;;;;;;;2.47;1.67;;;8.20;98.00;;;;;;5030306;28;20477;-67
2021/04/25 06:30:16;;;;;;;3.33;1.90;;;8.30;98.00;;;;;;5034304;28;20494;-68
2021/04/25 06:32:44;;;;;;;2.70;1.50;;;8.40;98.00;;;;;;5031301;28;20897;-67
2021/04/25 06:35:13;;;;;;;1.80;1.10;;;8.50;98.00;;;;;;5034365;28;20550;-67
2021/04/25 06:37:40;;;;;;;1.77;1.60;;;8.60;98.00;;;;;;5031513;28;20470;-67
2021/04/25 06:40:08;;;;;;;1.20;1.20;;;8.80;97.40;;;;;;5034122;28;20512;-68
2021/04/25 06:42:35;;;;;;;2.53;1.33;;;9.00;96.90;;;;;;5030003;28;20465;-67
2021/04/25 06:45:02;;;;;;;1.83;1.10;;;9.10;96.40;;;;;;5033912;28;20489;-66
2021/04/25 06:47:29;;;;;;;2.13;1.77;;;9.10;96.50;;;;;;5032371;28;20776;-67
2021/04/25 06:49:56;;;;;;;1.23;1.10;;;9.10;95.60;;;;;;5033856;28;20457;-67
2021/04/25 06:52:22;;;;;;;1.40;1.20;;;9.20;95.70;;;;;;5032402;28;20453;-68
2021/04/25 06:54:49;;;;;;;1.20;1.10;;;9.30;95.40;;;;;;5031278;28;20492;-68
2021/04/25 06:57:15;;;;;;;1.60;1.30;;;9.50;95.00;;;;;;5033648;28;20545;-68
2021/04/25 06:59:42;;;;;;;1.37;1.20;;;9.50;94.30;;;;;;5030861;28;20469;-68
2021/04/25 07:02:08;;;;;;;1.90;1.43;;;9.70;94.30;;;;;;5033721;28;20495;-68
2021/04/25 07:04:35;;;;;;;1.33;1.23;;;9.80;95.00;;;;;;5031040;28;20458;-68
2021/04/25 07:07:02;;;;;;;2.40;1.80;;;9.80;93.90;;;;;;5033318;28;20466;-68
2021/04/25 07:09:28;;;;;;;2.27;2.07;;;9.80;93.60;;;;;;5030930;28;20528;-67
2021/04/25 07:11:55;;;;;;;1.63;1.53;;;9.90;94.00;;;;;;5033267;28;20487;-67
2021/04/25 07:14:22;;;;;;;1.67;1.67;;;9.90;92.50;;;;;;5030689;28;20522;-67
2021/04/25 07:16:49;;;;;;;1.30;1.23;;;10.10;92.90;;;;;;5033341;28;21028;-67
2021/04/25 07:19:15;;;;;;;1.40;1.20;;;10.20;93.00;;;;;;5030727;28;20471;-67
2021/04/25 07:21:42;;;;;;;8.70;1.97;;;10.20;92.30;;;;;;5033257;28;21039;-68
2021/04/25 07:24:10;;;;;;;3.40;1.77;;;10.20;92.50;;;;;;5029826;28;20516;-67
2021/04/25 07:26:36;;;;;;;1.50;1.20;;;10.30;92.40;;;;;;5032154;28;20504;-68
2021/04/25 07:29:03;;;;;;;1.67;1.40;;;10.40;90.90;;;;;;5030370;28;20956;-66
2021/04/25 07:31:30;;;;;;;1.30;1.10;;;10.40;91.30;;;;;;5032332;28;20461;-72
2021/04/25 07:33:58;;;;;;;2.00;1.73;;;10.70;90.90;;;;;;5029077;28;20504;-66
2021/04/25 07:36:25;;;;;;;1.53;1.40;;;10.80;90.50;;;;;;5032579;28;20507;-68
2021/04/25 07:38:51;;;;;;;1.80;1.70;;;10.90;90.80;;;;;;5030121;28;20953;-67
2021/04/25 07:41:20;;;;;;;3.03;2.07;;;11.10;90.60;;;;;;5032378;28;20458;-69
2021/04/25 07:43:47;;;;;;;1.73;1.50;;;11.20;88.90;;;;;;5030009;28;20868;-68
2021/04/25 07:46:15;;;;;;;1.90;1.83;;;11.30;89.90;;;;;;5032571;28;20489;-67
2021/04/25 07:48:42;;;;;;;1.50;1.43;;;11.40;89.20;;;;;;5030000;28;20825;-68
2021/04/25 07:51:14;;;;;;;1.97;1.60;;;11.40;88.10;;;;;;5031944;28;20868;-70
2021/04/25 07:53:41;;;;;;;4.03;2.20;;;11.50;87.20;;;;;;5030009;28;21000;-69
2021/04/25 07:56:07;;;;;;;2.90;1.63;;;11.50;88.00;;;;;;5032571;28;20465;-69
2021/04/25 07:58:35;;;;;;;1.30;1.23;;;11.60;87.90;;;;;;5029883;28;20493;-69
2021/04/25 08:01:02;;;;;;;1.20;1.20;;;11.70;88.20;;;;;;5032254;28;20506;-70
2021/04/25 08:03:30;;;;;;;2.03;1.50;;;11.80;87.90;;;;;;5029973;28;20460;-67
2021/04/25 08:05:56;;;;;;;3.87;1.67;;;11.90;86.50;;;;;;5031966;28;20485;-69
2021/04/25 08:08:23;;;;;;;1.80;1.43;;;11.90;85.90;;;;;;5029709;28;20462;-69
2021/04/25 08:10:50;;;;;;;2.70;1.70;;;11.90;86.80;;;;;;5031559;28;20959;-68
2021/04/25 08:13:16;;;;;;;2.90;2.00;;;12.00;87.60;;;;;;5029386;28;20526;-69
2021/04/25 08:15:44;;;;;;;1.30;1.27;;;12.20;87.00;;;;;;5031794;28;20468;-69
2021/04/25 08:18:10;;;;;;;3.53;2.00;;;12.40;86.00;;;;;;5029411;28;20850;-70
2021/04/25 08:20:37;;;;;;;3.00;1.60;;;12.50;85.70;;;;;;5031622;28;20489;-70
2021/04/25 08:23:03;;;;;;;1.53;1.37;;;12.50;85.50;;;;;;5029118;28;20460;-70
2021/04/25 08:25:30;;;;;;;5.60;2.17;;;12.60;84.50;;;;;;5031798;28;20471;-69
2021/04/25 08:27:57;;;;;;;2.27;1.83;;;12.60;85.60;;;;;;5028898;28;21078;-69
2021/04/25 08:30:24;;;;;;;2.60;1.70;;;12.70;86.00;;;;;;5030236;28;20463;-70
2021/04/25 08:32:52;;;;;;;2.53;1.70;;;12.70;84.80;;;;;;5028969;28;20486;-69
2021/04/25 08:35:19;;;;;;;1.90;1.70;;;12.90;84.40;;;;;;5031600;28;21020;-69
2021/04/25 08:37:46;;;;;;;1.63;1.60;;;12.80;82.80;;;;;;5028294;28;20484;-69
2021/04/25 08:40:13;;;;;;;1.33;1.20;;;12.60;83.50;;;;;;5030285;28;20462;-69
2021/04/25 08:42:42;;;;;;;1.60;1.57;;;12.70;84.80;;;;;;5029680;28;20456;-69
2021/04/25 08:45:09;;;;;;;1.20;1.20;;;13.00;84.30;;;;;;5031373;28;20986;-69
2021/04/25 08:47:47;;;;;;;2.60;1.70;;;13.10;83.90;;;;;;5031308;28;20455;-69
2021/04/25 08:50:15;;;;;;;1.97;1.77;;;13.20;82.40;;;;;;5031217;28;20461;-70
2021/04/25 08:52:43;;;;;;;1.70;1.23;;;13.30;82.70;;;;;;5029434;28;20969;-68
2021/04/25 08:55:11;;;;;;;1.40;1.10;;;13.50;82.40;;;;;;5029910;28;20468;-69
2021/04/25 08:57:37;;;;;;;2.10;1.53;;;13.60;82.70;;;;;;5031231;28;20467;-69
2021/04/25 09:00:05;;;;;;;1.30;1.10;;;13.70;82.20;;;;;;5028661;28;20454;-69
2021/04/25 09:02:32;;;;;;;4.30;2.30;;;13.70;81.10;;;;;;5030967;28;20498;-70
2021/04/25 09:04:59;;;;;;;1.40;1.10;;;13.80;81.10;;;;;;5028665;28;20491;-70
2021/04/25 09:07:26;;;;;;;2.37;1.70;;;13.90;81.10;;;;;;5031120;28;20487;-68
2021/04/25 09:09:55;;;;;;;2.80;1.57;;;13.90;81.10;;;;;;5027137;28;20465;-65
2021/04/25 09:12:39;;;;;;;1.60;1.60;;;14.00;81.10;;;;;;5030773;28;20545;-66
2021/04/25 09:15:26;;;;;;;2.10;1.87;;;14.40;85.70;;;;;;5029160;28;20515;-70
2021/04/25 09:17:55;;;;;;;1.70;1.40;;;15.00;81.50;;;;;;5029569;28;20454;-69
2021/04/25 09:20:32;;;;;;;2.10;1.70;;;15.50;83.10;;;;;;5031410;28;20529;-69
2021/04/25 09:23:00;;;;;;;2.03;1.87;;;16.00;76.80;;;;;;5028945;28;20533;-69
2021/04/25 09:25:27;;;;;;;1.50;1.33;;;16.00;76.50;;;;;;5031079;28;20823;-69
2021/04/25 09:28:08;;;;;;;1.70;1.30;;;15.90;74.00;;;;;;5027923;28;20827;-70
2021/04/25 09:30:34;;;;;;;1.63;1.40;;;15.70;75.20;;;;;;5030663;28;20458;-69
2021/04/25 09:33:02;;;;;;;1.93;1.47;;;15.40;75.10;;;;;;5027739;28;20487;-69
2021/04/25 09:35:29;;;;;;;3.40;1.73;;;15.40;74.30;;;;;;5030806;28;20474;-69
2021/04/25 09:37:56;;;;;;;1.70;1.60;;;15.40;74.40;;;;;;5027879;28;20457;-69
2021/04/25 09:40:25;;;;;;;1.93;1.33;;;15.40;74.40;;;;;;5029527;28;20451;-69
2021/04/25 09:42:59;;;;;;;1.73;1.23;;;15.60;75.80;;;;;;5027823;28;20457;-70
2021/04/25 09:45:28;;;;;;;1.47;1.27;;;15.50;73.80;;;;;;5030792;28;20470;-68
2021/04/25 09:47:55;;;;;;;2.73;1.50;;;15.70;72.00;;;;;;5028047;28;20528;-71
2021/04/25 09:50:23;;;;;;;1.73;1.60;;;15.70;72.50;;;;;;5030570;28;20450;-68
2021/04/25 09:52:51;;;;;;;1.30;1.27;;;15.70;74.80;;;;;;5026583;28;20940;-69
2021/04/25 09:55:27;;;;;;;1.40;1.10;;;15.80;71.50;;;;;;5030481;28;20589;-69
2021/04/25 09:57:56;;;;;;;2.73;1.83;;;15.80;73.80;;;;;;5027689;28;20457;-69
2021/04/25 10:00:36;;;;;;;1.30;1.20;;;16.00;72.40;;;;;;5030556;28;20462;-67
2021/04/25 10:03:07;;;;;;;1.20;1.10;;;16.30;71.30;;;;;;5026696;28;20873;-68
2021/04/25 10:05:34;;;;;;;1.30;1.17;;;16.50;70.60;;;;;;5030465;28;20457;-71
2021/04/25 10:08:01;;;;;;;1.20;1.10;;;16.50;70.50;;;;;;5027690;28;20461;-72
2021/04/25 10:10:29;;;;;;;1.67;1.47;;;16.50;69.20;;;;;;5030007;28;20461;-71
2021/04/25 10:12:56;;;;;;;1.60;1.50;;;16.40;70.60;;;;;;5027523;28;20462;-71
2021/04/25 10:15:23;;;;;;;1.20;1.20;;;16.50;71.40;;;;;;5030171;28;20949;-72
2021/04/25 10:17:51;;;;;;;1.20;1.10;;;16.60;70.80;;;;;;5028617;28;20786;-71
2021/04/25 10:20:20;;;;;;;2.03;1.40;;;16.80;71.40;;;;;;5030328;28;20470;-67
2021/04/25 10:22:49;;;;;;;2.20;1.53;;;16.90;69.80;;;;;;5029420;28;20495;-68
2021/04/25 10:25:17;;;;;;;2.13;1.20;;;17.10;68.50;;;;;;5029564;28;20828;-71
2021/04/25 10:27:52;;;;;;;2.13;1.40;;;17.30;67.60;;;;;;5030127;28;20877;-72
2021/04/25 10:30:19;;;;;;;1.40;1.20;;;17.10;67.30;;;;;;5029996;28;20454;-71
2021/04/25 10:32:54;;;;;;;1.60;1.40;;;17.20;67.80;;;;;;5029661;28;20956;-71
2021/04/25 10:35:24;;;;;;;1.30;1.30;;;17.20;67.60;;;;;;5030136;28;20458;-71
2021/04/25 10:37:50;;;;;;;2.70;1.57;;;17.40;65.30;;;;;;5028662;28;20458;-71
2021/04/25 10:40:28;;;;;;;1.87;1.17;;;17.50;67.00;;;;;;5028990;28;20463;-72
2021/04/25 10:42:58;;;;;;;1.30;1.23;;;17.60;64.60;;;;;;5027263;28;20454;-72
2021/04/25 10:45:28;;;;;;;1.50;1.40;;;17.70;66.50;;;;;;5030090;28;20474;-71
2021/04/25 10:48:24;;;;;;;1.50;1.40;;;17.90;65.20;;;;;;5027698;28;20478;-71
2021/04/25 10:50:53;;;;;;;2.13;1.60;;;17.90;64.40;;;;;;5029776;28;20462;-71
2021/04/25 10:53:28;;;;;;;1.50;1.27;;;17.90;64.00;;;;;;5027579;28;20486;-71
2021/04/25 10:56:31;;;;;;;1.53;1.10;;;18.00;63.70;;;;;;5029870;28;20465;-70
2021/04/25 10:59:27;;;;;;;2.40;1.43;;;18.20;65.00;;;;;;5027594;28;20944;-72
2021/04/25 11:01:59;;;;;;;1.23;1.23;;;18.30;63.10;;;;;;5033123;28;20462;-72
2021/04/25 11:04:58;;;;;;;1.30;1.20;;;18.40;63.30;;;;;;5031062;28;20451;-71
2021/04/25 11:07:42;;;;;;;1.97;1.40;;;18.50;62.00;;;;;;5033201;28;20457;-71
2021/04/25 11:10:09;;;;;;;2.17;1.60;;;18.60;62.10;;;;;;5031007;28;20872;-71
2021/04/25 11:12:45;;;;;;;1.83;1.40;;;18.70;60.90;;;;;;5032924;28;20450;-72
2021/04/25 11:15:49;;;;;;;4.50;1.43;;;18.70;60.60;;;;;;5030733;28;20462;-71
2021/04/25 11:18:59;;;;;;;1.40;1.30;;;18.80;58.90;;;;;;5026334;28;20468;-71
2021/04/25 11:21:50;;;;;;;1.90;1.33;;;18.90;60.90;;;;;;5018115;28;20469;-71
2021/04/25 11:24:34;;;;;;;2.10;1.80;;;19.20;59.10;;;;;;5030213;28;20553;-71
2021/04/25 11:27:05;;;;;;;1.30;1.30;;;19.20;58.10;;;;;;5032915;28;20455;-72
2021/04/25 11:30:02;;;;;;;1.70;1.40;;;19.40;60.20;;;;;;5030429;28;20466;-72
2021/04/25 11:32:35;;;;;;;2.40;1.23;;;19.30;59.30;;;;;;4999126;28;20596;-72
2021/04/25 11:35:07;;;;;;;1.33;1.20;;;19.50;60.20;;;;;;5030813;28;20482;-71
2021/04/25 11:37:36;;;;;;;3.00;2.03;;;19.80;57.10;;;;;;5033746;28;20454;-71
2021/04/25 11:40:07;;;;;;;1.33;1.30;;;20.10;57.80;;;;;;5029664;28;20544;-69
2021/04/25 11:42:44;;;;;;;1.87;1.60;;;20.10;56.70;;;;;;5032717;28;20498;-68
2021/04/25 11:45:13;;;;;;;1.37;1.13;;;20.10;54.00;;;;;;5030653;28;20827;-70
2021/04/25 11:47:47;;;;;;;1.47;1.40;;;20.20;55.10;;;;;;5033123;28;20545;-69
2021/04/25 11:50:16;;;;;;;2.00;1.50;;;20.40;57.40;;;;;;5030430;28;20470;-69
2021/04/25 11:52:43;;;;;;;2.03;1.60;;;20.40;56.00;;;;;;5032368;28;20858;-69
2021/04/25 11:55:12;;;;;;;3.40;2.57;;;20.50;54.10;;;;;;5030757;28;20494;-71
2021/04/25 11:57:41;;;;;;;1.57;1.37;;;20.70;60.10;;;;;;5033549;28;20454;-72
2021/04/25 12:00:10;;;;;;;2.50;1.50;;;20.70;54.30;;;;;;5031180;28;20458;-72
2021/04/25 12:02:38;;;;;;;1.40;1.20;;;20.60;53.10;;;;;;5032661;28;20945;-71
2021/04/25 12:05:08;;;;;;;1.93;1.20;;;20.30;52.30;;;;;;5029797;28;20956;-70
2021/04/25 12:07:40;;;;;;;1.50;1.47;;;20.40;51.60;;;;;;5032668;28;20502;-73
2021/04/25 12:10:17;;;;;;;1.63;1.30;;;20.20;50.90;;;;;;5028278;28;20458;-71
2021/04/25 12:12:59;;;;;;;2.53;1.57;;;20.20;53.00;;;;;;5031757;28;20459;-71
2021/04/25 12:15:26;;;;;;;1.50;1.50;;;20.40;53.80;;;;;;5031602;28;20466;-72
2021/04/25 12:17:53;;;;;;;1.80;1.43;;;20.40;52.60;;;;;;5031171;28;20495;-72
2021/04/25 12:20:21;;;;;;;1.43;1.30;;;20.20;52.00;;;;;;5029426;28;20593;-71
2021/04/25 12:22:48;;;;;;;1.80;1.53;;;20.30;55.40;;;;;;5032474;28;20459;-72
2021/04/25 12:25:16;;;;;;;1.20;1.20;;;20.30;52.60;;;;;;5030028;28;20462;-71
2021/04/25 12:27:53;;;;;;;1.20;1.10;;;20.30;54.00;;;;;;5031975;28;20886;-71
2021/04/25 12:30:21;;;;;;;2.70;1.40;;;20.40;52.60;;;;;;5029834;28;20458;-71
2021/04/25 12:32:59;;;;;;;1.40;1.30;;;20.40;51.70;;;;;;5032022;28;20469;-72
2021/04/25 12:35:26;;;;;;;2.40;1.63;;;20.50;50.90;;;;;;5030633;28;20657;-72
2021/04/25 12:37:52;;;;;;;1.73;1.47;;;20.50;49.30;;;;;;5031579;28;20447;-72
2021/04/25 12:40:32;;;;;;;1.50;1.47;;;20.60;50.40;;;;;;5030464;28;20458;-71
2021/04/25 12:43:06;;;;;;;1.67;1.30;;;20.80;52.40;;;;;;5031972;28;21665;-71
2021/04/25 12:45:33;;;;;;;1.90;1.40;;;20.90;51.30;;;;;;5032065;28;20589;-71
2021/04/25 12:47:59;;;;;;;1.20;1.10;;;21.10;49.30;;;;;;5031882;28;20465;-71
2021/04/25 12:50:27;;;;;;;5.00;2.97;;;21.20;49.80;;;;;;5030332;28;21019;-69
2021/04/25 12:52:53;;;;;;;4.90;1.40;;;21.30;49.40;;;;;;5031917;28;20802;-71
2021/04/25 12:55:27;;;;;;;1.50;1.30;;;21.30;47.70;;;;;;5030264;28;20524;-71
2021/04/25 12:58:07;;;;;;;1.93;1.40;;;21.10;51.20;;;;;;5031799;28;20485;-71
2021/04/25 13:00:35;;;;;;;1.40;1.27;;;21.30;50.30;;;;;;5031899;28;20454;-71
2021/04/25 13:03:02;;;;;;;1.53;1.30;;;21.50;51.60;;;;;;5031841;28;20463;-71